Terminal Aerodrome Forecast
Issued by NWS

Home | Current Version | Previous Version | Text Only | Print | Product List | Glossary On
Versions: 1 2 3 4 5 6 7 8 9 10 11 12 13 14 15 16 17 18 19 20 21 22 23 24 25 26 27 28
320
FTUS46 KLOX 060101 AAA
TAFLAX
TAF AMD
KLAX 060101Z 0601/0706 27009KT P6SM SCT020 SCT250
     FM060130 27006KT P6SM BKN014 BKN250
     FM060300 28005KT 5SM BR OVC007
     FM060700 VRB03KT 5SM BR SCT007 OVC014
     FM061000 09004KT 5SM -DZ BR BKN007 OVC017
     FM061400 10005KT 6SM -DZ BR SCT011 OVC022
     FM061730 VRB03KT P6SM FEW014 BKN027
     FM062000 25009KT P6SM SCT027
     FM070100 26007KT P6SM BKN014=

USA.gov is the U.S. government's official web portal to all federal, state and local government web resources and services.